createdAt,value
2018-04-27T00:00:06.136Z,81.34
2018-04-27T00:02:34.041Z,81.21
2018-04-27T00:05:01.999Z,81.51
2018-04-27T00:07:29.887Z,81.07
2018-04-27T00:09:57.808Z,81.87
2018-04-27T00:12:25.731Z,81.12
2018-04-27T00:14:53.669Z,81.44
2018-04-27T00:17:21.573Z,82.26
2018-04-27T00:19:49.486Z,82.41
2018-04-27T00:22:17.411Z,82.82
2018-04-27T00:24:45.334Z,83.39
2018-04-27T00:27:13.360Z,83.33
2018-04-27T00:29:41.252Z,84.42
2018-04-27T00:32:09.184Z,84.43
2018-04-27T00:34:37.091Z,85.27
2018-04-27T00:37:05.005Z,85.45
2018-04-27T00:39:32.936Z,85.96
2018-04-27T00:42:00.856Z,85.22
2018-04-27T00:44:28.759Z,85.82
2018-04-27T00:46:56.672Z,85.77
2018-04-27T00:49:24.595Z,85.81
2018-04-27T00:51:52.547Z,86.12
2018-04-27T00:54:20.470Z,85.47
2018-04-27T00:56:48.392Z,86.09
2018-04-27T00:59:16.307Z,86.93
2018-04-27T01:01:44.219Z,86.99
2018-04-27T01:04:12.160Z,87.13
2018-04-27T01:06:40.075Z,86.67
2018-04-27T01:09:08.000Z,86.61
2018-04-27T01:11:35.903Z,86.09
2018-04-27T01:14:03.841Z,86.64
2018-04-27T01:16:31.743Z,86.18
2018-04-27T01:18:59.653Z,86.88
2018-04-27T01:21:27.571Z,86.54
2018-04-27T01:23:55.490Z,86.32
2018-04-27T01:26:23.402Z,86.91
2018-04-27T01:28:51.321Z,86.12
2018-04-27T01:31:19.223Z,86.40
2018-04-27T01:33:47.149Z,86.26
2018-04-27T01:36:15.076Z,86.16
2018-04-27T01:38:43.114Z,86.36
2018-04-27T01:41:11.354Z,86.61
2018-04-27T01:43:39.291Z,86.42
2018-04-27T01:46:07.224Z,86.48
2018-04-27T01:48:35.129Z,87.33
2018-04-27T01:51:03.165Z,88.14
2018-04-27T01:53:31.064Z,86.89
2018-04-27T01:55:58.968Z,87.78
2018-04-27T01:58:26.881Z,87.91
2018-04-27T02:00:54.767Z,87.52
2018-04-27T02:03:22.688Z,87.46
2018-04-27T02:05:50.607Z,87.39
2018-04-27T02:08:18.521Z,87.92
2018-04-27T02:10:46.473Z,87.44
2018-04-27T02:13:14.347Z,88.09
2018-04-27T02:15:42.283Z,88.19
2018-04-27T02:18:10.336Z,88.44
2018-04-27T02:20:38.247Z,88.18
2018-04-27T02:23:06.164Z,88.38
2018-04-27T02:25:34.164Z,88.47
2018-04-27T02:28:02.301Z,88.53
2018-04-27T02:30:30.231Z,89.10
2018-04-27T02:32:58.134Z,89.05
2018-04-27T02:35:26.055Z,89.39
2018-04-27T02:37:53.967Z,88.67
2018-04-27T02:40:21.896Z,88.77
2018-04-27T02:42:50.392Z,88.46
2018-04-27T02:45:18.322Z,88.18
2018-04-27T02:47:46.245Z,88.84
2018-04-27T02:50:14.155Z,89.41
2018-04-27T02:52:42.083Z,89.20
2018-04-27T02:55:10.028Z,89.04
2018-04-27T02:57:37.915Z,89.85
2018-04-27T03:00:05.830Z,89.54
2018-04-27T03:02:33.848Z,89.57
2018-04-27T03:05:01.739Z,89.54
2018-04-27T03:07:29.647Z,89.17
2018-04-27T03:09:57.543Z,89.41
2018-04-27T03:12:25.463Z,89.86
2018-04-27T03:14:53.480Z,90.41
2018-04-27T03:17:21.380Z,90.10
2018-04-27T03:19:49.322Z,90.74
2018-04-27T03:22:17.235Z,89.69
2018-04-27T03:24:45.160Z,89.77
2018-04-27T03:27:13.095Z,90.23
2018-04-27T03:29:41.865Z,89.90
2018-04-27T03:32:09.768Z,90.31
2018-04-27T03:34:37.887Z,89.60
2018-04-27T03:37:05.788Z,89.60
2018-04-27T03:39:33.695Z,89.36
2018-04-27T03:42:01.744Z,89.60
2018-04-27T03:44:29.717Z,89.98
2018-04-27T03:46:57.624Z,89.92
2018-04-27T03:49:25.533Z,89.34
2018-04-27T03:51:53.465Z,89.38
2018-04-27T03:54:21.367Z,89.02
2018-04-27T03:56:50.084Z,90.01
2018-04-27T03:59:29.815Z,89.09
2018-04-27T04:02:09.503Z,89.42
2018-04-27T04:07:33.051Z,89.24
2018-04-27T04:10:01.012Z,89.28
2018-04-27T04:12:28.935Z,89.18
2018-04-27T04:14:56.935Z,88.22
2018-04-27T04:17:24.859Z,88.44
2018-04-27T04:19:52.845Z,88.92
2018-04-27T04:22:20.764Z,88.14
2018-04-27T04:24:48.675Z,87.80
2018-04-27T04:27:16.591Z,87.88
2018-04-27T04:29:44.537Z,88.29
2018-04-27T04:32:12.643Z,88.81
2018-04-27T04:34:40.896Z,88.62
2018-04-27T04:37:08.802Z,88.32
2018-04-27T04:39:36.713Z,88.02
2018-04-27T04:42:04.777Z,88.23
2018-04-27T04:44:32.690Z,88.27
2018-04-27T04:47:00.624Z,88.52
2018-04-27T04:49:28.546Z,87.75
2018-04-27T04:51:56.447Z,87.81
2018-04-27T04:54:24.364Z,87.41
2018-04-27T04:56:52.601Z,86.93
2018-04-27T04:59:20.548Z,87.83
2018-04-27T05:01:48.449Z,87.74
2018-04-27T05:04:16.380Z,86.86
2018-04-27T05:06:44.299Z,87.32
2018-04-27T05:09:12.220Z,87.38
2018-04-27T05:11:40.133Z,86.90
2018-04-27T05:14:08.077Z,86.09
2018-04-27T05:16:35.982Z,86.03
2018-04-27T05:19:04.698Z,85.68
2018-04-27T05:21:32.607Z,85.93
2018-04-27T05:24:00.529Z,85.13
2018-04-27T05:26:28.435Z,85.15
2018-04-27T05:28:56.348Z,83.72
2018-04-27T05:31:25.053Z,83.99
2018-04-27T05:33:53.047Z,83.34
2018-04-27T05:36:20.965Z,83.68
2018-04-27T05:38:48.879Z,83.58
2018-04-27T05:41:16.783Z,83.35
2018-04-27T05:43:44.699Z,83.15
2018-04-27T05:46:12.755Z,82.88
2018-04-27T05:48:40.670Z,82.92
2018-04-27T05:51:08.571Z,82.39
2018-04-27T05:53:36.501Z,82.28
2018-04-27T05:56:04.588Z,81.55
2018-04-27T05:58:32.510Z,81.43
2018-04-27T06:01:00.415Z,80.76
2018-04-27T06:03:40.227Z,80.34
2018-04-27T06:06:08.156Z,80.55
2018-04-27T06:08:36.053Z,80.23
2018-04-27T06:11:04.011Z,79.68
2018-04-27T06:13:31.907Z,79.31
2018-04-27T06:15:59.846Z,79.43
2018-04-27T06:18:27.729Z,78.89
2018-04-27T06:20:55.629Z,78.73
2018-04-27T06:23:23.619Z,77.96
2018-04-27T06:25:51.557Z,76.43
2018-04-27T06:28:19.460Z,76.14
2018-04-27T06:30:47.392Z,74.73
2018-04-27T06:33:15.326Z,73.56
2018-04-27T06:35:43.255Z,72.82
2018-04-27T06:38:11.157Z,71.00
2018-04-27T06:40:39.085Z,70.44
2018-04-27T06:43:06.997Z,69.52
2018-04-27T06:45:34.981Z,69.39
2018-04-27T06:48:02.887Z,69.22
2018-04-27T06:50:30.841Z,65.95
2018-04-27T06:52:58.745Z,66.80
2018-04-27T06:55:26.651Z,66.08
2018-04-27T06:57:54.582Z,66.93
2018-04-27T07:00:22.496Z,65.99
2018-04-27T07:02:50.422Z,64.69
2018-04-27T07:05:18.418Z,64.01
2018-04-27T07:07:46.240Z,67.05
2018-04-27T07:10:14.785Z,65.37
2018-04-27T07:12:42.680Z,63.10
2018-04-27T07:15:10.616Z,62.49
2018-04-27T07:17:38.521Z,61.44
2018-04-27T07:20:06.461Z,62.04
2018-04-27T07:22:34.363Z,62.48
2018-04-27T07:25:02.286Z,62.15
2018-04-27T07:27:30.199Z,62.65
2018-04-27T07:29:58.110Z,62.08
2018-04-27T07:32:26.010Z,60.92
2018-04-27T07:34:53.926Z,62.70
2018-04-27T07:37:21.845Z,60.67
2018-04-27T07:39:49.751Z,61.68
2018-04-27T07:42:17.679Z,59.40
2018-04-27T07:44:45.600Z,59.87
2018-04-27T07:47:13.519Z,58.41
2018-04-27T07:49:41.427Z,60.19
2018-04-27T07:52:09.361Z,60.86
2018-04-27T07:54:37.248Z,57.37
2018-04-27T07:57:05.238Z,56.98
2018-04-27T07:59:33.350Z,57.35
2018-04-27T08:02:01.268Z,56.97
2018-04-27T08:04:29.165Z,57.93
2018-04-27T08:06:57.101Z,56.39
2018-04-27T08:09:24.991Z,54.78
2018-04-27T08:11:52.903Z,54.10
2018-04-27T08:14:20.823Z,53.40
2018-04-27T08:16:48.727Z,54.50
2018-04-27T08:19:16.665Z,54.00
2018-04-27T08:21:44.596Z,51.83
2018-04-27T08:24:12.512Z,51.15
2018-04-27T08:26:40.411Z,51.49
2018-04-27T08:29:08.369Z,52.49
2018-04-27T08:31:36.270Z,51.14
2018-04-27T08:34:04.173Z,51.16
2018-04-27T08:36:32.092Z,49.37
2018-04-27T08:38:59.994Z,49.42
2018-04-27T08:41:27.905Z,49.24
2018-04-27T08:43:55.827Z,49.04
2018-04-27T08:46:23.741Z,50.72
2018-04-27T08:48:51.642Z,49.15
2018-04-27T08:51:19.546Z,47.60
2018-04-27T08:53:47.468Z,47.10
2018-04-27T08:56:15.383Z,47.79
2018-04-27T08:58:43.292Z,46.98
2018-04-27T09:01:11.200Z,45.71
2018-04-27T09:03:39.117Z,43.48
2018-04-27T09:06:07.054Z,45.66
2018-04-27T09:08:34.956Z,45.75
2018-04-27T09:11:02.883Z,46.36
2018-04-27T09:13:30.788Z,47.42
2018-04-27T09:15:58.705Z,46.60
2018-04-27T09:18:26.607Z,48.58
2018-04-27T09:20:54.531Z,49.63
2018-04-27T09:23:22.478Z,48.93
2018-04-27T09:25:50.412Z,47.49
2018-04-27T09:28:18.307Z,46.94
2018-04-27T09:30:46.226Z,46.40
2018-04-27T09:33:14.142Z,43.80
2018-04-27T09:35:42.093Z,43.61
2018-04-27T09:38:10.002Z,43.20
2018-04-27T09:40:37.904Z,42.12
2018-04-27T09:43:05.828Z,42.53
2018-04-27T09:45:33.735Z,41.71
2018-04-27T09:48:01.633Z,41.07
2018-04-27T09:50:29.560Z,41.23
2018-04-27T09:52:57.524Z,40.33
2018-04-27T09:55:25.432Z,39.00
2018-04-27T09:57:53.355Z,39.73
2018-04-27T10:00:21.264Z,39.83
2018-04-27T10:02:49.187Z,40.01
2018-04-27T10:05:17.091Z,40.36
2018-04-27T10:07:45.077Z,39.52
2018-04-27T10:10:12.978Z,41.04
2018-04-27T10:12:40.906Z,43.36
2018-04-27T10:15:08.808Z,44.24
2018-04-27T10:17:36.798Z,43.77
2018-04-27T10:20:04.680Z,44.40
2018-04-27T10:22:32.584Z,43.45
2018-04-27T10:25:00.503Z,43.18
2018-04-27T10:27:28.430Z,43.10
2018-04-27T10:29:56.373Z,45.28
2018-04-27T10:32:24.295Z,45.03
2018-04-27T10:34:52.213Z,44.40
2018-04-27T10:37:20.164Z,44.55
2018-04-27T10:39:48.096Z,43.82
2018-04-27T10:42:15.991Z,43.88
2018-04-27T10:44:43.933Z,39.94
2018-04-27T10:47:11.823Z,39.73
2018-04-27T10:49:39.736Z,39.56
2018-04-27T10:52:07.644Z,37.59
2018-04-27T10:54:35.552Z,38.88
2018-04-27T10:57:03.487Z,39.09
2018-04-27T10:59:31.376Z,42.00
2018-04-27T11:01:59.289Z,43.03
2018-04-27T11:04:27.214Z,44.34
2018-04-27T11:06:55.119Z,42.48
2018-04-27T11:09:23.127Z,40.61
2018-04-27T11:11:51.243Z,39.87
2018-04-27T11:14:19.140Z,40.00
2018-04-27T11:16:47.115Z,39.31
2018-04-27T11:19:14.980Z,36.34
2018-04-27T11:21:42.887Z,36.59
2018-04-27T11:24:10.815Z,36.20
2018-04-27T11:26:38.727Z,36.48
2018-04-27T11:29:06.640Z,36.47
2018-04-27T11:31:34.565Z,37.85
2018-04-27T11:34:02.459Z,37.98
2018-04-27T11:36:30.354Z,37.07
2018-04-27T11:38:58.271Z,37.59
2018-04-27T11:41:26.198Z,36.52
2018-04-27T11:43:54.112Z,35.89
2018-04-27T11:46:22.008Z,36.37
2018-04-27T11:48:49.915Z,38.59
2018-04-27T11:51:17.826Z,39.81
2018-04-27T11:53:45.738Z,38.43
2018-04-27T11:56:13.623Z,38.04
2018-04-27T11:58:41.568Z,36.05
2018-04-27T12:01:09.498Z,36.33
2018-04-27T12:03:37.432Z,37.61
2018-04-27T12:06:05.313Z,39.72
2018-04-27T12:08:33.239Z,38.74
2018-04-27T12:11:01.148Z,36.63
2018-04-27T12:13:29.067Z,35.10
2018-04-27T12:15:56.976Z,35.31
2018-04-27T12:18:24.899Z,33.93
2018-04-27T12:20:52.812Z,34.88
2018-04-27T12:23:20.730Z,33.97
2018-04-27T12:25:48.651Z,34.34
2018-04-27T12:28:16.551Z,33.59
2018-04-27T12:30:44.460Z,34.25
2018-04-27T12:33:12.370Z,33.34
2018-04-27T12:35:40.263Z,32.25
2018-04-27T12:38:08.184Z,32.63
2018-04-27T12:40:36.084Z,31.90
2018-04-27T12:43:04.006Z,32.66
2018-04-27T12:45:31.943Z,34.56
2018-04-27T12:47:59.867Z,36.30
2018-04-27T12:50:27.767Z,36.87
2018-04-27T12:52:55.712Z,38.18
2018-04-27T12:55:23.671Z,40.05
2018-04-27T12:57:51.578Z,40.04
2018-04-27T13:00:19.487Z,38.96
2018-04-27T13:02:47.402Z,39.46
2018-04-27T13:05:15.349Z,38.72
2018-04-27T13:07:43.267Z,39.83
2018-04-27T13:10:11.180Z,40.82
2018-04-27T13:12:39.077Z,39.76
2018-04-27T13:15:07.007Z,40.55
2018-04-27T13:17:34.930Z,39.81
2018-04-27T13:20:02.855Z,40.49
2018-04-27T13:22:30.815Z,41.05
2018-04-27T13:24:58.699Z,41.18
2018-04-27T13:27:26.604Z,41.78
2018-04-27T13:29:54.564Z,41.36
2018-04-27T13:32:22.459Z,42.85
2018-04-27T13:34:50.375Z,41.68
2018-04-27T13:37:18.284Z,40.19
2018-04-27T13:39:46.215Z,40.76
2018-04-27T13:42:14.124Z,41.45
2018-04-27T13:44:42.143Z,41.79
2018-04-27T13:47:10.055Z,41.52
2018-04-27T13:49:37.969Z,41.84
2018-04-27T13:52:05.866Z,42.32
2018-04-27T13:54:33.800Z,41.67
2018-04-27T13:57:01.745Z,41.79
2018-04-27T13:59:29.703Z,41.36
2018-04-27T14:01:57.612Z,41.89
2018-04-27T14:04:25.625Z,42.96
2018-04-27T14:06:53.515Z,43.71
2018-04-27T14:09:21.420Z,42.81
2018-04-27T14:11:49.340Z,42.40
2018-04-27T14:14:17.232Z,42.69
2018-04-27T14:16:45.156Z,42.73
2018-04-27T14:19:13.055Z,42.28
2018-04-27T14:21:40.957Z,42.37
2018-04-27T14:24:08.920Z,42.09
2018-04-27T14:26:36.851Z,41.84
2018-04-27T14:29:04.763Z,41.95
2018-04-27T14:31:32.692Z,41.88
2018-04-27T14:34:00.579Z,41.69
2018-04-27T14:36:28.485Z,41.67
2018-04-27T14:38:56.409Z,41.97
2018-04-27T14:41:24.355Z,42.15
2018-04-27T14:43:52.251Z,43.22
2018-04-27T14:46:21.120Z,43.35
2018-04-27T14:48:49.075Z,42.90
2018-04-27T14:51:16.991Z,42.28
2018-04-27T14:53:44.900Z,42.18
2018-04-27T14:56:12.899Z,42.01
2018-04-27T14:58:40.831Z,43.16
2018-04-27T15:01:08.732Z,43.21
2018-04-27T15:03:36.652Z,43.58
2018-04-27T15:06:04.620Z,43.59
2018-04-27T15:08:32.495Z,44.02
2018-04-27T15:11:00.430Z,44.29
2018-04-27T15:13:28.388Z,44.27
2018-04-27T15:15:56.303Z,43.10
2018-04-27T15:18:24.297Z,43.01
2018-04-27T15:20:52.121Z,44.00
2018-04-27T15:23:20.257Z,43.22
2018-04-27T15:25:48.174Z,43.80
2018-04-27T15:28:16.093Z,43.94
2018-04-27T15:30:44.064Z,44.13
2018-04-27T15:33:12.030Z,43.87
2018-04-27T15:35:39.947Z,44.32
2018-04-27T15:38:07.866Z,44.35
2018-04-27T15:40:35.783Z,44.10
2018-04-27T15:43:03.730Z,43.26
2018-04-27T15:45:31.641Z,44.16
2018-04-27T15:48:00.163Z,44.33
2018-04-27T15:50:28.076Z,44.77
2018-04-27T15:52:55.971Z,45.03
2018-04-27T15:55:23.895Z,44.67
2018-04-27T15:57:51.796Z,44.64
2018-04-27T16:00:19.719Z,43.29
2018-04-27T16:02:47.656Z,44.32
2018-04-27T16:05:15.597Z,44.42
2018-04-27T16:07:43.539Z,45.06
2018-04-27T16:10:11.439Z,45.50
2018-04-27T16:12:39.371Z,45.90
2018-04-27T16:15:07.303Z,46.93
2018-04-27T16:17:35.246Z,46.76
2018-04-27T16:20:03.149Z,47.33
2018-04-27T16:22:31.063Z,47.42
2018-04-27T16:24:58.978Z,46.72
2018-04-27T16:27:26.915Z,47.36
2018-04-27T16:29:54.846Z,49.50
2018-04-27T16:32:23.541Z,48.12
2018-04-27T16:34:51.476Z,48.39
2018-04-27T16:37:19.394Z,48.57
2018-04-27T16:39:47.317Z,49.15
2018-04-27T16:42:15.303Z,48.77
2018-04-27T16:44:43.256Z,49.02
2018-04-27T16:47:11.163Z,48.36
2018-04-27T16:49:39.074Z,48.41
2018-04-27T16:52:07.247Z,48.02
2018-04-27T16:54:35.246Z,47.77
2018-04-27T16:57:03.124Z,47.50
2018-04-27T16:59:31.032Z,48.39
2018-04-27T17:01:58.939Z,48.52
2018-04-27T17:04:26.873Z,49.15
2018-04-27T17:06:54.849Z,49.04
2018-04-27T17:09:22.799Z,49.66
2018-04-27T17:11:50.707Z,50.55
2018-04-27T17:14:18.620Z,50.14
2018-04-27T17:16:46.623Z,50.18
2018-04-27T17:19:14.620Z,50.80
2018-04-27T17:21:42.508Z,51.29
2018-04-27T17:24:10.487Z,51.22
2018-04-27T17:26:38.947Z,51.64
2018-04-27T17:29:06.833Z,51.71
2018-04-27T17:31:34.778Z,51.94
2018-04-27T17:34:03.372Z,52.15
2018-04-27T17:36:31.322Z,52.53
2018-04-27T17:38:59.232Z,52.42
2018-04-27T17:41:27.155Z,54.12
2018-04-27T17:43:55.079Z,52.84
2018-04-27T17:46:22.982Z,53.06
2018-04-27T17:48:51.043Z,53.14
2018-04-27T17:51:18.913Z,53.01
2018-04-27T17:53:46.829Z,52.75
2018-04-27T17:56:14.752Z,52.94
2018-04-27T17:58:42.643Z,52.94
2018-04-27T18:01:11.386Z,53.28
2018-04-27T18:03:39.297Z,53.34
2018-04-27T18:06:07.356Z,53.43
2018-04-27T18:08:35.274Z,53.83
2018-04-27T18:11:03.193Z,53.72
2018-04-27T18:13:31.123Z,53.80
2018-04-27T18:15:59.015Z,54.05
2018-04-27T18:18:27.019Z,53.92
2018-04-27T18:20:54.929Z,54.18
2018-04-27T18:23:22.877Z,54.53
2018-04-27T18:25:50.794Z,54.47
2018-04-27T18:28:18.719Z,54.85
2018-04-27T18:30:46.680Z,56.80
2018-04-27T18:33:14.612Z,55.55
2018-04-27T18:35:42.572Z,55.27
2018-04-27T18:38:10.400Z,55.25
2018-04-27T18:40:38.324Z,55.55
2018-04-27T18:43:06.250Z,55.68
2018-04-27T18:45:34.150Z,55.61
2018-04-27T18:48:08.541Z,55.71
2018-04-27T18:50:36.735Z,55.94
2018-04-27T18:53:04.663Z,56.06
2018-04-27T18:55:32.579Z,56.24
2018-04-27T18:58:00.483Z,56.31
2018-04-27T19:00:31.256Z,56.45
2018-04-27T19:02:59.178Z,56.68
2018-04-27T19:05:27.075Z,57.10
2018-04-27T19:07:55.694Z,57.39
2018-04-27T19:10:23.608Z,57.13
2018-04-27T19:12:51.511Z,57.09
2018-04-27T19:15:20.131Z,57.97
2018-04-27T19:17:48.127Z,57.79
2018-04-27T19:20:16.021Z,58.25
2018-04-27T19:22:43.926Z,58.57
2018-04-27T19:25:11.860Z,58.84
2018-04-27T19:27:39.806Z,58.69
2018-04-27T19:30:07.856Z,58.54
2018-04-27T19:32:35.789Z,58.48
2018-04-27T19:35:03.786Z,58.23
2018-04-27T19:37:31.769Z,58.13
2018-04-27T19:39:59.607Z,58.28
2018-04-27T19:42:27.563Z,58.29
2018-04-27T19:44:55.467Z,58.28
2018-04-27T19:47:23.368Z,58.80
2018-04-27T19:49:51.282Z,58.94
2018-04-27T19:52:19.222Z,58.87
2018-04-27T19:54:47.139Z,58.61
2018-04-27T19:57:15.054Z,58.36
2018-04-27T19:59:42.969Z,58.90
2018-04-27T20:02:10.882Z,59.17
2018-04-27T20:04:38.810Z,59.88
2018-04-27T20:07:06.708Z,59.75
2018-04-27T20:09:34.636Z,60.20
2018-04-27T20:12:02.635Z,60.37
2018-04-27T20:14:32.249Z,60.55
2018-04-27T20:17:03.626Z,60.89
2018-04-27T20:19:37.013Z,61.04
2018-04-27T20:22:10.606Z,63.66
2018-04-27T20:24:38.439Z,62.37
2018-04-27T20:27:06.372Z,61.79
2018-04-27T20:29:34.318Z,60.83
2018-04-27T20:32:02.221Z,60.66
2018-04-27T20:34:30.144Z,60.61
2018-04-27T20:36:58.055Z,61.13
2018-04-27T20:39:25.960Z,61.58
2018-04-27T20:41:53.884Z,61.50
2018-04-27T20:44:21.800Z,60.89
2018-04-27T20:46:49.721Z,61.64
2018-04-27T20:49:19.941Z,61.57
2018-04-27T20:51:50.457Z,61.41
2018-04-27T20:54:18.374Z,61.63
2018-04-27T20:56:46.300Z,61.28
2018-04-27T20:59:14.960Z,62.96
2018-04-27T21:01:42.977Z,61.97
2018-04-27T21:04:10.877Z,61.15
2018-04-27T21:06:38.791Z,60.44
2018-04-27T21:09:06.731Z,60.67
2018-04-27T21:11:37.256Z,60.76
2018-04-27T21:14:05.233Z,60.77
2018-04-27T21:16:33.077Z,60.93
2018-04-27T21:19:00.983Z,61.26
2018-04-27T21:21:28.931Z,61.39
2018-04-27T21:23:57.049Z,61.24
2018-04-27T21:26:27.832Z,61.44
2018-04-27T21:28:56.596Z,61.71
2018-04-27T21:31:24.500Z,61.95
2018-04-27T21:33:55.765Z,61.60
2018-04-27T21:36:29.305Z,61.83
2018-04-27T21:39:07.921Z,61.99
2018-04-27T21:44:45.616Z,62.21
2018-04-27T21:47:18.379Z,62.47
2018-04-27T21:49:47.152Z,62.24
2018-04-27T21:52:15.060Z,62.63
2018-04-27T21:54:42.974Z,62.64
2018-04-27T21:57:16.572Z,62.61
2018-04-27T21:59:51.871Z,62.85
2018-04-27T22:05:51.182Z,63.21
2018-04-27T22:08:30.963Z,62.89
2018-04-27T22:11:00.075Z,63.31
2018-04-27T22:13:29.555Z,63.69
2018-04-27T22:15:57.468Z,64.23
2018-04-27T22:18:25.386Z,63.80
2018-04-27T22:20:55.028Z,63.69
2018-04-27T22:23:24.874Z,64.08
2018-04-27T22:25:53.009Z,64.63
2018-04-27T22:28:33.577Z,64.37
2018-04-27T22:31:01.481Z,64.52
2018-04-27T22:33:31.240Z,64.92
2018-04-27T22:39:15.118Z,64.95
2018-04-27T22:41:43.860Z,65.07
2018-04-27T22:44:13.111Z,65.27
2018-04-27T22:46:41.025Z,65.58
2018-04-27T22:49:09.615Z,66.20
2018-04-27T22:51:39.404Z,66.10
2018-04-27T22:54:08.261Z,65.75
2018-04-27T22:56:53.963Z,65.24
2018-04-27T22:59:34.713Z,65.78
2018-04-27T23:02:05.192Z,66.19
2018-04-27T23:04:33.107Z,66.04
2018-04-27T23:07:01.032Z,65.44
2018-04-27T23:09:28.960Z,65.59
2018-04-27T23:11:56.876Z,65.70
2018-04-27T23:14:32.279Z,65.40
2018-04-27T23:17:03.959Z,65.59
2018-04-27T23:19:34.581Z,65.75
2018-04-27T23:22:23.187Z,65.34
2018-04-27T23:24:52.032Z,65.82
2018-04-27T23:27:19.961Z,65.66
2018-04-27T23:29:47.879Z,65.98
2018-04-27T23:32:15.803Z,66.35
2018-04-27T23:34:43.712Z,66.47
2018-04-27T23:37:11.629Z,66.44
2018-04-27T23:39:39.555Z,65.85
2018-04-27T23:42:07.485Z,66.45
2018-04-27T23:44:35.411Z,66.31
2018-04-27T23:47:03.311Z,66.69
2018-04-27T23:49:31.233Z,66.54
2018-04-27T23:51:59.163Z,66.33
2018-04-27T23:54:27.077Z,66.07
2018-04-27T23:56:56.803Z,65.86
2018-04-27T23:59:25.511Z,65.68
